sensor_id;sensor_type;location;lat;lon;timestamp;temperature;humidity
65408;DHT22;52017;51.230;-2.322;2022-12-29T00:01:15;9.20;95.90
65408;DHT22;52017;51.230;-2.322;2022-12-29T00:04:57;9.20;95.80
65408;DHT22;52017;51.230;-2.322;2022-12-29T00:08:40;9.00;95.70
65408;DHT22;52017;51.230;-2.322;2022-12-29T00:12:22;9.00;95.70
65408;DHT22;52017;51.230;-2.322;2022-12-29T00:16:07;9.00;95.60
65408;DHT22;52017;51.230;-2.322;2022-12-29T00:19:49;9.00;95.70
65408;DHT22;52017;51.230;-2.322;2022-12-29T00:23:50;9.00;95.60
65408;DHT22;52017;51.230;-2.322;2022-12-29T00:27:50;8.90;95.60
65408;DHT22;52017;51.230;-2.322;2022-12-29T00:31:51;8.90;95.50
65408;DHT22;52017;51.230;-2.322;2022-12-29T00:35:57;8.90;95.50
65408;DHT22;52017;51.230;-2.322;2022-12-29T00:39:39;8.90;95.50
65408;DHT22;52017;51.230;-2.322;2022-12-29T00:43:40;8.90;95.60
65408;DHT22;52017;51.230;-2.322;2022-12-29T00:47:40;8.90;95.60
65408;DHT22;52017;51.230;-2.322;2022-12-29T00:51:23;8.90;95.60
65408;DHT22;52017;51.230;-2.322;2022-12-29T00:55:05;8.90;95.60
65408;DHT22;52017;51.230;-2.322;2022-12-29T00:58:49;8.90;95.50
65408;DHT22;52017;51.230;-2.322;2022-12-29T01:02:31;8.80;95.50
65408;DHT22;52017;51.230;-2.322;2022-12-29T01:06:14;8.80;95.40
65408;DHT22;52017;51.230;-2.322;2022-12-29T01:09:56;8.80;95.30
65408;DHT22;52017;51.230;-2.322;2022-12-29T01:13:53;8.80;95.20
65408;DHT22;52017;51.230;-2.322;2022-12-29T01:17:36;8.80;95.40
65408;DHT22;52017;51.230;-2.322;2022-12-29T01:21:18;8.80;95.60
65408;DHT22;52017;51.230;-2.322;2022-12-29T01:25:01;8.90;95.60
65408;DHT22;52017;51.230;-2.322;2022-12-29T01:28:44;8.90;95.60
65408;DHT22;52017;51.230;-2.322;2022-12-29T01:32:26;9.00;95.60
65408;DHT22;52017;51.230;-2.322;2022-12-29T01:36:13;9.00;95.50
65408;DHT22;52017;51.230;-2.322;2022-12-29T01:39:55;9.00;95.60
65408;DHT22;52017;51.230;-2.322;2022-12-29T01:47:51;9.10;95.60
65408;DHT22;52017;51.230;-2.322;2022-12-29T01:51:48;9.20;95.40
65408;DHT22;52017;51.230;-2.322;2022-12-29T01:55:36;9.30;95.30
65408;DHT22;52017;51.230;-2.322;2022-12-29T01:59:24;9.30;95.60
65408;DHT22;52017;51.230;-2.322;2022-12-29T02:03:09;9.40;95.60
65408;DHT22;52017;51.230;-2.322;2022-12-29T02:06:57;9.50;95.60
65408;DHT22;52017;51.230;-2.322;2022-12-29T02:10:42;9.50;95.50
65408;DHT22;52017;51.230;-2.322;2022-12-29T02:14:26;9.50;95.30
65408;DHT22;52017;51.230;-2.322;2022-12-29T02:18:30;9.50;95.30
65408;DHT22;52017;51.230;-2.322;2022-12-29T02:38:33;9.60;94.20
65408;DHT22;52017;51.230;-2.322;2022-12-29T02:42:36;9.50;94.80
65408;DHT22;52017;51.230;-2.322;2022-12-29T02:46:50;9.50;95.00
65408;DHT22;52017;51.230;-2.322;2022-12-29T02:50:36;9.60;95.20
65408;DHT22;52017;51.230;-2.322;2022-12-29T02:54:20;9.60;95.10
65408;DHT22;52017;51.230;-2.322;2022-12-29T02:58:22;9.60;95.00
65408;DHT22;52017;51.230;-2.322;2022-12-29T03:02:45;9.50;95.10
65408;DHT22;52017;51.230;-2.322;2022-12-29T03:11:04;9.50;94.50
65408;DHT22;52017;51.230;-2.322;2022-12-29T03:15:07;9.50;95.20
65408;DHT22;52017;51.230;-2.322;2022-12-29T03:23:05;9.40;95.20
65408;DHT22;52017;51.230;-2.322;2022-12-29T03:26:49;9.40;95.30
65408;DHT22;52017;51.230;-2.322;2022-12-29T03:30:34;9.30;95.40
65408;DHT22;52017;51.230;-2.322;2022-12-29T03:34:19;9.30;95.50
65408;DHT22;52017;51.230;-2.322;2022-12-29T03:38:13;9.30;95.50
65408;DHT22;52017;51.230;-2.322;2022-12-29T03:42:02;9.30;95.40
65408;DHT22;52017;51.230;-2.322;2022-12-29T03:45:45;9.30;95.60
65408;DHT22;52017;51.230;-2.322;2022-12-29T03:49:27;9.30;95.70
65408;DHT22;52017;51.230;-2.322;2022-12-29T03:53:11;9.20;95.50
65408;DHT22;52017;51.230;-2.322;2022-12-29T03:56:53;9.20;95.60
65408;DHT22;52017;51.230;-2.322;2022-12-29T04:00:35;9.20;95.70
65408;DHT22;52017;51.230;-2.322;2022-12-29T04:04:18;9.10;95.60
65408;DHT22;52017;51.230;-2.322;2022-12-29T04:08:01;9.10;95.60
65408;DHT22;52017;51.230;-2.322;2022-12-29T04:11:43;9.10;95.60
65408;DHT22;52017;51.230;-2.322;2022-12-29T04:15:25;9.10;95.60
65408;DHT22;52017;51.230;-2.322;2022-12-29T04:19:08;9.00;95.50
65408;DHT22;52017;51.230;-2.322;2022-12-29T04:23:00;9.00;95.40
65408;DHT22;52017;51.230;-2.322;2022-12-29T04:26:43;8.90;95.20
65408;DHT22;52017;51.230;-2.322;2022-12-29T04:30:25;8.90;95.40
65408;DHT22;52017;51.230;-2.322;2022-12-29T04:34:07;9.00;95.50
65408;DHT22;52017;51.230;-2.322;2022-12-29T04:37:49;9.00;95.70
65408;DHT22;52017;51.230;-2.322;2022-12-29T04:41:31;9.00;95.80
65408;DHT22;52017;51.230;-2.322;2022-12-29T04:45:15;9.00;95.80
65408;DHT22;52017;51.230;-2.322;2022-12-29T04:48:57;9.00;95.70
65408;DHT22;52017;51.230;-2.322;2022-12-29T04:52:39;9.00;95.60
65408;DHT22;52017;51.230;-2.322;2022-12-29T04:56:22;9.00;95.50
65408;DHT22;52017;51.230;-2.322;2022-12-29T05:00:05;9.00;95.50
65408;DHT22;52017;51.230;-2.322;2022-12-29T05:03:50;9.00;95.50
65408;DHT22;52017;51.230;-2.322;2022-12-29T05:07:34;9.00;95.10
65408;DHT22;52017;51.230;-2.322;2022-12-29T05:11:17;8.90;95.40
65408;DHT22;52017;51.230;-2.322;2022-12-29T05:14:59;8.80;95.40
65408;DHT22;52017;51.230;-2.322;2022-12-29T05:18:41;8.90;95.40
65408;DHT22;52017;51.230;-2.322;2022-12-29T05:22:23;8.80;95.30
65408;DHT22;52017;51.230;-2.322;2022-12-29T05:26:06;8.80;95.30
65408;DHT22;52017;51.230;-2.322;2022-12-29T05:29:48;8.70;95.40
65408;DHT22;52017;51.230;-2.322;2022-12-29T05:33:32;8.80;95.50
65408;DHT22;52017;51.230;-2.322;2022-12-29T05:37:14;8.90;95.60
65408;DHT22;52017;51.230;-2.322;2022-12-29T05:40:58;8.90;95.70
65408;DHT22;52017;51.230;-2.322;2022-12-29T05:44:41;8.90;95.60
65408;DHT22;52017;51.230;-2.322;2022-12-29T05:48:23;9.00;95.70
65408;DHT22;52017;51.230;-2.322;2022-12-29T05:52:05;9.00;95.60
65408;DHT22;52017;51.230;-2.322;2022-12-29T05:55:48;9.00;95.50
65408;DHT22;52017;51.230;-2.322;2022-12-29T05:59:31;8.90;95.50
65408;DHT22;52017;51.230;-2.322;2022-12-29T06:03:13;8.90;95.60
65408;DHT22;52017;51.230;-2.322;2022-12-29T06:06:55;9.00;95.60
65408;DHT22;52017;51.230;-2.322;2022-12-29T06:10:37;9.00;95.70
65408;DHT22;52017;51.230;-2.322;2022-12-29T06:14:19;9.00;95.60
65408;DHT22;52017;51.230;-2.322;2022-12-29T06:18:02;9.10;95.60
65408;DHT22;52017;51.230;-2.322;2022-12-29T06:21:44;9.10;95.60
65408;DHT22;52017;51.230;-2.322;2022-12-29T06:25:26;9.10;95.50
65408;DHT22;52017;51.230;-2.322;2022-12-29T06:29:09;9.10;95.50
65408;DHT22;52017;51.230;-2.322;2022-12-29T06:32:51;9.10;95.40
65408;DHT22;52017;51.230;-2.322;2022-12-29T06:36:33;9.10;95.40
65408;DHT22;52017;51.230;-2.322;2022-12-29T06:40:16;9.10;95.40
65408;DHT22;52017;51.230;-2.322;2022-12-29T06:43:58;9.10;95.40
65408;DHT22;52017;51.230;-2.322;2022-12-29T06:47:40;9.00;95.40
65408;DHT22;52017;51.230;-2.322;2022-12-29T06:51:22;9.10;95.40
65408;DHT22;52017;51.230;-2.322;2022-12-29T06:55:04;9.00;95.40
65408;DHT22;52017;51.230;-2.322;2022-12-29T06:58:47;9.00;95.40
65408;DHT22;52017;51.230;-2.322;2022-12-29T07:02:30;9.00;95.50
65408;DHT22;52017;51.230;-2.322;2022-12-29T07:06:12;9.00;95.50
65408;DHT22;52017;51.230;-2.322;2022-12-29T07:09:54;9.00;95.40
65408;DHT22;52017;51.230;-2.322;2022-12-29T07:13:37;8.90;95.40
65408;DHT22;52017;51.230;-2.322;2022-12-29T07:17:20;8.90;95.30
65408;DHT22;52017;51.230;-2.322;2022-12-29T07:21:03;8.90;95.40
65408;DHT22;52017;51.230;-2.322;2022-12-29T07:24:45;8.80;95.40
65408;DHT22;52017;51.230;-2.322;2022-12-29T07:28:27;8.90;95.40
65408;DHT22;52017;51.230;-2.322;2022-12-29T07:32:10;8.90;95.60
65408;DHT22;52017;51.230;-2.322;2022-12-29T07:35:52;8.80;95.50
65408;DHT22;52017;51.230;-2.322;2022-12-29T07:39:36;8.80;95.50
65408;DHT22;52017;51.230;-2.322;2022-12-29T07:43:18;8.80;95.40
65408;DHT22;52017;51.230;-2.322;2022-12-29T07:47:02;8.70;95.40
65408;DHT22;52017;51.230;-2.322;2022-12-29T07:50:46;8.60;95.40
65408;DHT22;52017;51.230;-2.322;2022-12-29T07:54:28;8.70;95.40
65408;DHT22;52017;51.230;-2.322;2022-12-29T07:58:10;8.70;95.50
65408;DHT22;52017;51.230;-2.322;2022-12-29T08:01:52;8.60;95.40
65408;DHT22;52017;51.230;-2.322;2022-12-29T08:05:34;8.60;95.40
65408;DHT22;52017;51.230;-2.322;2022-12-29T08:09:16;8.60;95.50
65408;DHT22;52017;51.230;-2.322;2022-12-29T08:13:04;8.50;95.20
65408;DHT22;52017;51.230;-2.322;2022-12-29T08:16:47;8.50;95.10
65408;DHT22;52017;51.230;-2.322;2022-12-29T08:20:29;8.40;95.10
65408;DHT22;52017;51.230;-2.322;2022-12-29T08:24:11;8.40;95.20
65408;DHT22;52017;51.230;-2.322;2022-12-29T08:27:53;8.40;95.20
65408;DHT22;52017;51.230;-2.322;2022-12-29T08:31:36;8.30;95.20
65408;DHT22;52017;51.230;-2.322;2022-12-29T08:35:18;8.30;95.10
65408;DHT22;52017;51.230;-2.322;2022-12-29T08:39:00;8.20;95.10
65408;DHT22;52017;51.230;-2.322;2022-12-29T08:42:44;8.30;95.00
65408;DHT22;52017;51.230;-2.322;2022-12-29T08:46:28;8.20;95.00
65408;DHT22;52017;51.230;-2.322;2022-12-29T08:50:12;8.20;95.00
65408;DHT22;52017;51.230;-2.322;2022-12-29T08:53:54;8.20;95.00
65408;DHT22;52017;51.230;-2.322;2022-12-29T08:57:36;8.20;95.00
65408;DHT22;52017;51.230;-2.322;2022-12-29T09:01:19;8.20;95.00
65408;DHT22;52017;51.230;-2.322;2022-12-29T09:05:01;8.20;95.10
65408;DHT22;52017;51.230;-2.322;2022-12-29T09:08:46;8.30;95.20
65408;DHT22;52017;51.230;-2.322;2022-12-29T09:12:29;8.30;95.20
65408;DHT22;52017;51.230;-2.322;2022-12-29T09:16:17;8.30;95.00
65408;DHT22;52017;51.230;-2.322;2022-12-29T09:20:03;8.40;94.90
65408;DHT22;52017;51.230;-2.322;2022-12-29T09:23:45;8.30;95.00
65408;DHT22;52017;51.230;-2.322;2022-12-29T09:27:27;8.40;94.90
65408;DHT22;52017;51.230;-2.322;2022-12-29T09:31:09;8.40;94.90
65408;DHT22;52017;51.230;-2.322;2022-12-29T09:34:51;8.50;94.80
65408;DHT22;52017;51.230;-2.322;2022-12-29T09:38:35;8.50;94.80
65408;DHT22;52017;51.230;-2.322;2022-12-29T09:42:35;8.50;94.70
65408;DHT22;52017;51.230;-2.322;2022-12-29T09:50:34;8.60;94.90
65408;DHT22;52017;51.230;-2.322;2022-12-29T09:54:59;8.60;92.60
65408;DHT22;52017;51.230;-2.322;2022-12-29T09:59:04;8.60;92.60
65408;DHT22;52017;51.230;-2.322;2022-12-29T10:02:53;8.70;94.10
65408;DHT22;52017;51.230;-2.322;2022-12-29T10:19:43;8.90;93.20
65408;DHT22;52017;51.230;-2.322;2022-12-29T10:27:17;9.00;95.10
65408;DHT22;52017;51.230;-2.322;2022-12-29T10:31:01;9.10;94.90
65408;DHT22;52017;51.230;-2.322;2022-12-29T10:34:53;9.10;94.80
65408;DHT22;52017;51.230;-2.322;2022-12-29T10:38:40;9.10;94.80
65408;DHT22;52017;51.230;-2.322;2022-12-29T10:42:37;9.20;94.80
65408;DHT22;52017;51.230;-2.322;2022-12-29T10:46:28;9.30;93.60
65408;DHT22;52017;51.230;-2.322;2022-12-29T10:50:12;9.30;94.70
65408;DHT22;52017;51.230;-2.322;2022-12-29T10:54:11;9.50;94.80
65408;DHT22;52017;51.230;-2.322;2022-12-29T10:57:56;9.50;94.50
65408;DHT22;52017;51.230;-2.322;2022-12-29T11:06:10;9.60;93.40
65408;DHT22;52017;51.230;-2.322;2022-12-29T11:09:54;9.60;92.10
65408;DHT22;52017;51.230;-2.322;2022-12-29T11:14:08;9.60;94.30
65408;DHT22;52017;51.230;-2.322;2022-12-29T11:17:58;9.60;91.60
65408;DHT22;52017;51.230;-2.322;2022-12-29T11:21:43;9.80;93.70
65408;DHT22;52017;51.230;-2.322;2022-12-29T11:25:29;9.90;94.40
65408;DHT22;52017;51.230;-2.322;2022-12-29T11:29:24;10.00;94.40
65408;DHT22;52017;51.230;-2.322;2022-12-29T11:33:09;10.00;93.20
65408;DHT22;52017;51.230;-2.322;2022-12-29T11:37:00;10.00;94.30
65408;DHT22;52017;51.230;-2.322;2022-12-29T11:40:43;10.20;93.80
65408;DHT22;52017;51.230;-2.322;2022-12-29T11:44:26;10.20;94.10
65408;DHT22;52017;51.230;-2.322;2022-12-29T11:48:17;10.50;94.60
65408;DHT22;52017;51.230;-2.322;2022-12-29T11:52:00;11.00;94.70
65408;DHT22;52017;51.230;-2.322;2022-12-29T11:55:52;11.60;94.60
65408;DHT22;52017;51.230;-2.322;2022-12-29T11:59:43;12.00;92.80
65408;DHT22;52017;51.230;-2.322;2022-12-29T12:03:35;12.30;91.70
65408;DHT22;52017;51.230;-2.322;2022-12-29T12:07:24;12.40;91.70
65408;DHT22;52017;51.230;-2.322;2022-12-29T12:15:16;13.00;91.20
65408;DHT22;52017;51.230;-2.322;2022-12-29T12:27:10;14.20;88.00
65408;DHT22;52017;51.230;-2.322;2022-12-29T12:30:57;14.60;88.30
65408;DHT22;52017;51.230;-2.322;2022-12-29T12:34:43;14.70;88.70
65408;DHT22;52017;51.230;-2.322;2022-12-29T12:39:06;14.80;88.00
65408;DHT22;52017;51.230;-2.322;2022-12-29T12:43:23;14.70;82.20
65408;DHT22;52017;51.230;-2.322;2022-12-29T12:47:38;14.60;81.70
65408;DHT22;52017;51.230;-2.322;2022-12-29T12:51:32;14.20;85.90
65408;DHT22;52017;51.230;-2.322;2022-12-29T12:59:41;14.10;82.80
65408;DHT22;52017;51.230;-2.322;2022-12-29T13:07:44;15.20;80.10
65408;DHT22;52017;51.230;-2.322;2022-12-29T13:20:02;15.70;80.00
65408;DHT22;52017;51.230;-2.322;2022-12-29T13:24:00;15.20;78.80
65408;DHT22;52017;51.230;-2.322;2022-12-29T13:32:13;14.00;82.40
65408;DHT22;52017;51.230;-2.322;2022-12-29T13:36:05;13.50;82.40
65408;DHT22;52017;51.230;-2.322;2022-12-29T13:40:03;12.90;86.40
65408;DHT22;52017;51.230;-2.322;2022-12-29T13:43:52;12.50;85.00
65408;DHT22;52017;51.230;-2.322;2022-12-29T13:47:42;12.40;89.40
65408;DHT22;52017;51.230;-2.322;2022-12-29T13:51:28;12.20;87.80
65408;DHT22;52017;51.230;-2.322;2022-12-29T13:55:31;12.00;89.40
65408;DHT22;52017;51.230;-2.322;2022-12-29T14:07:16;11.70;88.30
65408;DHT22;52017;51.230;-2.322;2022-12-29T14:11:08;11.50;89.30
65408;DHT22;52017;51.230;-2.322;2022-12-29T14:14:54;11.30;89.50
65408;DHT22;52017;51.230;-2.322;2022-12-29T14:18:42;11.10;90.40
65408;DHT22;52017;51.230;-2.322;2022-12-29T14:22:26;11.00;89.30
65408;DHT22;52017;51.230;-2.322;2022-12-29T14:30:46;10.70;90.80
65408;DHT22;52017;51.230;-2.322;2022-12-29T14:34:30;10.50;87.40
65408;DHT22;52017;51.230;-2.322;2022-12-29T14:38:24;10.40;91.20
65408;DHT22;52017;51.230;-2.322;2022-12-29T14:42:19;10.50;92.00
65408;DHT22;52017;51.230;-2.322;2022-12-29T14:46:08;10.80;90.40
65408;DHT22;52017;51.230;-2.322;2022-12-29T14:49:50;11.10;90.90
65408;DHT22;52017;51.230;-2.322;2022-12-29T14:57:28;11.80;88.20
65408;DHT22;52017;51.230;-2.322;2022-12-29T15:01:39;11.50;88.00
65408;DHT22;52017;51.230;-2.322;2022-12-29T15:05:31;11.00;84.00
65408;DHT22;52017;51.230;-2.322;2022-12-29T15:09:37;10.60;87.50
65408;DHT22;52017;51.230;-2.322;2022-12-29T15:13:32;10.10;87.10
65408;DHT22;52017;51.230;-2.322;2022-12-29T15:17:32;10.00;90.10
65408;DHT22;52017;51.230;-2.322;2022-12-29T15:21:27;9.80;88.10
65408;DHT22;52017;51.230;-2.322;2022-12-29T15:25:17;9.60;89.50
65408;DHT22;52017;51.230;-2.322;2022-12-29T15:29:00;9.50;89.90
65408;DHT22;52017;51.230;-2.322;2022-12-29T15:32:43;9.40;90.90
65408;DHT22;52017;51.230;-2.322;2022-12-29T15:36:28;9.20;90.90
65408;DHT22;52017;51.230;-2.322;2022-12-29T15:40:24;9.10;91.40
65408;DHT22;52017;51.230;-2.322;2022-12-29T15:44:21;9.00;90.50
65408;DHT22;52017;51.230;-2.322;2022-12-29T15:48:14;9.00;90.00
65408;DHT22;52017;51.230;-2.322;2022-12-29T15:52:00;9.00;91.90
65408;DHT22;52017;51.230;-2.322;2022-12-29T15:55:48;9.00;92.10
65408;DHT22;52017;51.230;-2.322;2022-12-29T15:59:33;9.00;92.30
65408;DHT22;52017;51.230;-2.322;2022-12-29T16:03:16;9.00;92.40
65408;DHT22;52017;51.230;-2.322;2022-12-29T16:07:02;9.00;92.50
65408;DHT22;52017;51.230;-2.322;2022-12-29T16:10:44;9.00;92.30
65408;DHT22;52017;51.230;-2.322;2022-12-29T16:14:41;8.80;91.80
65408;DHT22;52017;51.230;-2.322;2022-12-29T16:18:28;8.80;91.70
65408;DHT22;52017;51.230;-2.322;2022-12-29T16:22:17;8.60;91.50
65408;DHT22;52017;51.230;-2.322;2022-12-29T16:26:02;8.50;91.20
65408;DHT22;52017;51.230;-2.322;2022-12-29T16:29:46;8.40;91.30
65408;DHT22;52017;51.230;-2.322;2022-12-29T16:33:46;8.30;91.10
65408;DHT22;52017;51.230;-2.322;2022-12-29T16:37:32;8.10;89.30
65408;DHT22;52017;51.230;-2.322;2022-12-29T16:41:31;8.00;91.30
65408;DHT22;52017;51.230;-2.322;2022-12-29T16:49:02;7.90;90.90
65408;DHT22;52017;51.230;-2.322;2022-12-29T16:52:48;7.80;91.10
65408;DHT22;52017;51.230;-2.322;2022-12-29T16:56:33;7.70;91.20
65408;DHT22;52017;51.230;-2.322;2022-12-29T17:00:29;7.60;91.50
65408;DHT22;52017;51.230;-2.322;2022-12-29T17:04:14;7.50;91.60
65408;DHT22;52017;51.230;-2.322;2022-12-29T17:07:56;7.50;91.60
65408;DHT22;52017;51.230;-2.322;2022-12-29T17:11:43;7.50;91.80
65408;DHT22;52017;51.230;-2.322;2022-12-29T17:15:48;7.50;91.80
65408;DHT22;52017;51.230;-2.322;2022-12-29T17:19:33;7.40;91.90
65408;DHT22;52017;51.230;-2.322;2022-12-29T17:23:15;7.40;92.10
65408;DHT22;52017;51.230;-2.322;2022-12-29T17:27:06;7.40;92.00
65408;DHT22;52017;51.230;-2.322;2022-12-29T17:30:49;7.30;92.00
65408;DHT22;52017;51.230;-2.322;2022-12-29T17:34:32;7.30;92.10
65408;DHT22;52017;51.230;-2.322;2022-12-29T17:38:16;7.20;92.10
65408;DHT22;52017;51.230;-2.322;2022-12-29T17:42:00;7.20;92.10
65408;DHT22;52017;51.230;-2.322;2022-12-29T17:45:47;7.20;92.10
65408;DHT22;52017;51.230;-2.322;2022-12-29T17:49:30;7.10;92.20
65408;DHT22;52017;51.230;-2.322;2022-12-29T17:53:15;7.10;92.10
65408;DHT22;52017;51.230;-2.322;2022-12-29T17:57:00;7.00;92.30
65408;DHT22;52017;51.230;-2.322;2022-12-29T18:00:42;7.10;92.30
65408;DHT22;52017;51.230;-2.322;2022-12-29T18:04:24;7.00;92.30
65408;DHT22;52017;51.230;-2.322;2022-12-29T18:08:09;7.00;92.30
65408;DHT22;52017;51.230;-2.322;2022-12-29T18:11:52;7.00;92.70
65408;DHT22;52017;51.230;-2.322;2022-12-29T18:15:35;7.00;92.50
65408;DHT22;52017;51.230;-2.322;2022-12-29T18:19:18;7.00;92.70
65408;DHT22;52017;51.230;-2.322;2022-12-29T18:23:00;7.00;92.70
65408;DHT22;52017;51.230;-2.322;2022-12-29T18:26:42;7.00;92.90
65408;DHT22;52017;51.230;-2.322;2022-12-29T18:30:25;7.00;92.70
65408;DHT22;52017;51.230;-2.322;2022-12-29T18:34:13;7.00;92.60
65408;DHT22;52017;51.230;-2.322;2022-12-29T18:37:56;6.90;92.90
65408;DHT22;52017;51.230;-2.322;2022-12-29T18:41:38;6.90;92.70
65408;DHT22;52017;51.230;-2.322;2022-12-29T18:45:23;6.90;92.70
65408;DHT22;52017;51.230;-2.322;2022-12-29T18:49:05;6.90;93.10
65408;DHT22;52017;51.230;-2.322;2022-12-29T18:52:47;6.90;92.90
65408;DHT22;52017;51.230;-2.322;2022-12-29T18:56:29;6.90;92.70
65408;DHT22;52017;51.230;-2.322;2022-12-29T19:00:13;6.90;92.90
65408;DHT22;52017;51.230;-2.322;2022-12-29T19:03:56;6.90;92.80
65408;DHT22;52017;51.230;-2.322;2022-12-29T19:07:38;6.80;92.70
65408;DHT22;52017;51.230;-2.322;2022-12-29T19:11:20;6.80;92.80
65408;DHT22;52017;51.230;-2.322;2022-12-29T19:15:03;6.80;92.60
65408;DHT22;52017;51.230;-2.322;2022-12-29T19:18:48;6.70;92.80
65408;DHT22;52017;51.230;-2.322;2022-12-29T19:22:50;6.70;92.70
65408;DHT22;52017;51.230;-2.322;2022-12-29T19:26:35;6.70;92.70
65408;DHT22;52017;51.230;-2.322;2022-12-29T19:30:20;6.60;92.90
65408;DHT22;52017;51.230;-2.322;2022-12-29T19:34:02;6.60;92.90
65408;DHT22;52017;51.230;-2.322;2022-12-29T19:37:44;6.60;92.70
65408;DHT22;52017;51.230;-2.322;2022-12-29T19:41:26;6.60;92.70
65408;DHT22;52017;51.230;-2.322;2022-12-29T19:45:09;6.60;92.70
65408;DHT22;52017;51.230;-2.322;2022-12-29T19:48:52;6.50;92.60
65408;DHT22;52017;51.230;-2.322;2022-12-29T19:52:37;6.50;92.70
65408;DHT22;52017;51.230;-2.322;2022-12-29T19:56:20;6.50;92.60
65408;DHT22;52017;51.230;-2.322;2022-12-29T20:00:03;6.40;92.40
65408;DHT22;52017;51.230;-2.322;2022-12-29T20:03:46;6.40;92.30
65408;DHT22;52017;51.230;-2.322;2022-12-29T20:07:28;6.40;92.20
65408;DHT22;52017;51.230;-2.322;2022-12-29T20:11:12;6.30;92.10
65408;DHT22;52017;51.230;-2.322;2022-12-29T20:14:55;6.20;92.10
65408;DHT22;52017;51.230;-2.322;2022-12-29T20:18:39;6.10;91.80
65408;DHT22;52017;51.230;-2.322;2022-12-29T20:22:22;6.10;92.10
65408;DHT22;52017;51.230;-2.322;2022-12-29T20:26:05;6.00;92.40
65408;DHT22;52017;51.230;-2.322;2022-12-29T20:29:47;6.10;92.50
65408;DHT22;52017;51.230;-2.322;2022-12-29T20:33:30;6.00;92.40
65408;DHT22;52017;51.230;-2.322;2022-12-29T20:37:15;6.00;92.50
65408;DHT22;52017;51.230;-2.322;2022-12-29T20:40:59;6.00;92.70
65408;DHT22;52017;51.230;-2.322;2022-12-29T20:44:42;6.00;93.00
65408;DHT22;52017;51.230;-2.322;2022-12-29T20:48:25;6.10;93.10
65408;DHT22;52017;51.230;-2.322;2022-12-29T20:52:07;6.10;93.10
65408;DHT22;52017;51.230;-2.322;2022-12-29T20:55:49;6.10;92.90
65408;DHT22;52017;51.230;-2.322;2022-12-29T20:59:32;6.10;93.00
65408;DHT22;52017;51.230;-2.322;2022-12-29T21:03:14;6.00;93.10
65408;DHT22;52017;51.230;-2.322;2022-12-29T21:06:56;6.10;93.00
65408;DHT22;52017;51.230;-2.322;2022-12-29T21:10:40;6.00;92.80
65408;DHT22;52017;51.230;-2.322;2022-12-29T21:14:22;6.00;92.90
65408;DHT22;52017;51.230;-2.322;2022-12-29T21:18:04;6.00;93.00
65408;DHT22;52017;51.230;-2.322;2022-12-29T21:21:47;6.00;93.00
65408;DHT22;52017;51.230;-2.322;2022-12-29T21:25:30;6.00;93.00
65408;DHT22;52017;51.230;-2.322;2022-12-29T21:29:18;6.00;93.10
65408;DHT22;52017;51.230;-2.322;2022-12-29T21:33:00;6.00;93.20
65408;DHT22;52017;51.230;-2.322;2022-12-29T21:36:42;6.00;93.30
65408;DHT22;52017;51.230;-2.322;2022-12-29T21:40:24;6.00;93.10
65408;DHT22;52017;51.230;-2.322;2022-12-29T21:44:07;6.00;93.00
65408;DHT22;52017;51.230;-2.322;2022-12-29T21:48:08;6.00;93.00
65408;DHT22;52017;51.230;-2.322;2022-12-29T21:52:02;6.00;93.00
65408;DHT22;52017;51.230;-2.322;2022-12-29T21:55:44;6.00;92.90
65408;DHT22;52017;51.230;-2.322;2022-12-29T21:59:26;5.90;92.80
65408;DHT22;52017;51.230;-2.322;2022-12-29T22:03:27;5.90;92.80
65408;DHT22;52017;51.230;-2.322;2022-12-29T22:07:28;5.90;92.80
65408;DHT22;52017;51.230;-2.322;2022-12-29T22:11:32;5.90;92.80
65408;DHT22;52017;51.230;-2.322;2022-12-29T22:15:35;5.80;93.00
65408;DHT22;52017;51.230;-2.322;2022-12-29T22:19:18;5.80;93.00
65408;DHT22;52017;51.230;-2.322;2022-12-29T22:23:00;5.80;92.90
65408;DHT22;52017;51.230;-2.322;2022-12-29T22:26:42;5.80;93.10
65408;DHT22;52017;51.230;-2.322;2022-12-29T22:30:26;5.80;93.10
65408;DHT22;52017;51.230;-2.322;2022-12-29T22:34:08;5.80;93.50
65408;DHT22;52017;51.230;-2.322;2022-12-29T22:37:51;5.90;93.50
65408;DHT22;52017;51.230;-2.322;2022-12-29T22:41:33;5.90;93.60
65408;DHT22;52017;51.230;-2.322;2022-12-29T22:45:16;5.90;93.70
65408;DHT22;52017;51.230;-2.322;2022-12-29T22:48:58;6.00;93.90
65408;DHT22;52017;51.230;-2.322;2022-12-29T22:52:40;6.00;93.90
65408;DHT22;52017;51.230;-2.322;2022-12-29T22:56:22;6.00;93.90
65408;DHT22;52017;51.230;-2.322;2022-12-29T23:00:06;6.00;93.90
65408;DHT22;52017;51.230;-2.322;2022-12-29T23:03:49;6.00;94.00
65408;DHT22;52017;51.230;-2.322;2022-12-29T23:07:33;6.10;93.80
65408;DHT22;52017;51.230;-2.322;2022-12-29T23:11:16;6.10;93.90
65408;DHT22;52017;51.230;-2.322;2022-12-29T23:14:59;6.00;93.80
65408;DHT22;52017;51.230;-2.322;2022-12-29T23:18:43;6.10;93.80
65408;DHT22;52017;51.230;-2.322;2022-12-29T23:22:25;6.00;93.90
65408;DHT22;52017;51.230;-2.322;2022-12-29T23:26:08;6.00;93.80
65408;DHT22;52017;51.230;-2.322;2022-12-29T23:29:50;6.00;93.80
65408;DHT22;52017;51.230;-2.322;2022-12-29T23:33:32;6.10;93.90
65408;DHT22;52017;51.230;-2.322;2022-12-29T23:37:14;6.10;93.90
65408;DHT22;52017;51.230;-2.322;2022-12-29T23:40:56;6.20;94.10
65408;DHT22;52017;51.230;-2.322;2022-12-29T23:44:38;6.20;94.10
65408;DHT22;52017;51.230;-2.322;2022-12-29T23:48:20;6.20;94.10
65408;DHT22;52017;51.230;-2.322;2022-12-29T23:52:02;6.20;94.10
65408;DHT22;52017;51.230;-2.322;2022-12-29T23:55:52;6.20;94.20
65408;DHT22;52017;51.230;-2.322;2022-12-29T23:59:34;6.30;94.40
